Pagrindinis puslapis
METAR-TAF:

METAR-TAF

Oro uostai :

Funšalis, Madeiros salos, Portugalija

platuma: 32-41-52N, ilguma: 016-46-28W, Aukštis: 59 m

Dabartinis oras

Ataskaita buvo paskelbta 25 minutes, ne 04:00 UTC
Vėjas 2 kt nuo kintamojo kryptimis
Temperatūra 18°C
Drėgmė 88%
Slėgis 1020 hPa
Matomumas 10 km arba daugiau
Mažai debesys ne aukštis 1500 ft

METAR: LPMA 070400Z VRB02KT 9999 FEW015 18/16 Q1020

Laikas: 05:25 (04:25 UTC)

Prognozė

Ataskaita buvo paskelbta 5 valandos ir 25 minutes, ne 23:00 UTC
Prognozė galioja nuo 07 metu 00 UTC su 07 metu 24 UTC
Vėjas 5 kt nuo kintamojo kryptimis
Matomumas 10 km arba daugiau
Išsisklaidę debesys ne aukštis 1600 ft
Laikinai
nuo 07 metu 00 UTC su 07 metu 12 UTC
Su prošvaistėmis ne aukštis 1300 ft
Tapsmas
nuo 07 metu 09 UTC su 07 metu 12 UTC
Vėjas 12 kt iš Pietų/Pietvakarių

TAF: LPMA 062300Z 0700/0724 VRB05KT 9999 SCT016 TEMPO 0700/0712 BKN013 BECMG 0709/0712 21012KT

Orai ataskaitas ir orų prognozės (METAR, TAF).

turimą stotys yra geltonos ir raudonos taškus žemėlapyje.

Perkelti pele per norėdami pamatyti stoties vardą.

Tada spustelėkite, norėdami matyti oro stebėjimo ir prognozės.

Norėdami pakeisti žemėlapį: spustelėkite ant žalios mygtukų su juodo kryžiaus žemyn,; žalią mygtuką su brūkšneliu, jei norite nutolinti; arba žalių rodyklių gretimoms žemėlapius.


METAR-TAF: